This is the latest recevied weather packets stored in our database for station/object E24TVS-1. If no packets are shown the sender has not sent any weather packets the latest 10 day(s).
| Time | Temp. | Humidity | Pressure | Rain* | Wind** | Luminosity | Snow |
|---|---|---|---|---|---|---|---|
| 1777778184 | 33.33° C | 59% | 990 hPa | - | - | 0 W/m² | - |
| 1777777561 | 32.78° C | 60% | 990 hPa | - | - | 0 W/m² | - |
| 1777776939 | 32.78° C | 61% | 990 hPa | - | - | 0 W/m² | - |
| 1777776317 | 32.78° C | 61% | 990 hPa | - | - | 0 W/m² | - |
| 1777775694 | 32.78° C | 62% | 990 hPa | - | - | 0 W/m² | - |
| 1777775071 | 32.78° C | 63% | 990 hPa | - | - | 0 W/m² | - |
| 1777774448 | 32.78° C | 63% | 990 hPa | - | - | 0 W/m² | - |
| 1777773826 | 32.78° C | 64% | 990 hPa | - | - | 0 W/m² | - |
| 1777773204 | 32.78° C | 64% | 991 hPa | - | - | 0 W/m² | - |
| 1777772581 | 32.22° C | 65% | 990 hPa | - | - | 0 W/m² | - |
| 1777771959 | 32.22° C | 65% | 990 hPa | - | - | 0 W/m² | - |
| 1777771336 | 32.22° C | 66% | 990 hPa | - | - | 0 W/m² | - |
| 1777770714 | 31.67° C | 67% | 990 hPa | - | - | 0 W/m² | - |
| 1777770091 | 31.67° C | 67% | 990 hPa | - | - | 0 W/m² | - |
| 1777769469 | 31.11° C | 69% | 990 hPa | - | - | 0 W/m² | - |
| 1777768847 | 31.11° C | 72% | 990 hPa | - | - | 0 W/m² | - |
| 1777768224 | 30.56° C | 76% | 990 hPa | - | - | 0 W/m² | - |
| 1777767602 | 29.44° C | 79% | 990 hPa | - | - | 0 W/m² | - |
| 1777766978 | 29.44° C | 78% | 990 hPa | - | - | 0 W/m² | - |
| 1777766354 | 29.44° C | 78% | 989 hPa | - | - | 0 W/m² | - |
| 1777765732 | 29.44° C | 76% | 989 hPa | - | - | 0 W/m² | - |
| 1777765110 | 30° C | 74% | 989 hPa | - | - | 0 W/m² | - |
| 1777764486 | 30° C | 72% | 989 hPa | - | - | 0 W/m² | - |
| 1777763864 | 30° C | 72% | 989 hPa | - | - | 0 W/m² | - |
| 1777763241 | 30° C | 73% | 989 hPa | - | - | 0 W/m² | - |
* Rain since midnight (hover to see other rain measurements)
** Current wind speed in m/s (hover to see current wind gust speed)